Time;durP1;ratioP1;P1;durP2;ratioP2;P2;SDS_P1;SDS_P2;PMS_P1;PMS_P2;Temp;Humidity;BMP_temperature;BMP_pressure;BME280_temperature;BME280_humidity;BME280_pressure;Samples;Min_cycle;Max_cycle;Signal;HPM_P1;HPM_P2
2021/05/20 00:00:34;;;;;;;1.10;1.10;;;13.60;37.00;;;;;;10406992;28;20323;-72
2021/05/20 00:05:38;;;;;;;1.33;1.20;;;13.60;37.00;;;;;;10406727;28;20710;-72
2021/05/20 00:10:40;;;;;;;1.20;1.10;;;13.50;37.30;;;;;;10406734;28;20602;-72
2021/05/20 00:15:43;;;;;;;1.20;1.10;;;13.50;37.10;;;;;;10406483;28;20245;-72
2021/05/20 00:20:47;;;;;;;2.17;1.20;;;13.40;37.10;;;;;;10406037;28;20264;-73
2021/05/20 00:25:50;;;;;;;1.20;1.10;;;13.40;37.50;;;;;;10406318;28;20228;-71
2021/05/20 00:30:52;;;;;;;1.53;1.20;;;13.30;37.20;;;;;;10406172;28;20256;-72
2021/05/20 00:35:56;;;;;;;1.50;1.40;;;13.30;37.40;;;;;;10405885;28;20754;-72
2021/05/20 00:40:59;;;;;;;1.83;1.27;;;13.30;37.60;;;;;;10408037;28;20226;-72
2021/05/20 00:46:03;;;;;;;1.30;1.20;;;13.30;37.60;;;;;;10413017;28;20225;-72
2021/05/20 00:51:07;;;;;;;1.60;1.40;;;13.30;37.60;;;;;;10412998;28;20261;-71
2021/05/20 00:56:10;;;;;;;1.53;1.43;;;13.30;37.60;;;;;;10412830;28;20253;-72
2021/05/20 01:01:14;;;;;;;1.27;1.20;;;13.30;37.40;;;;;;10412538;28;20229;-72
2021/05/20 01:06:17;;;;;;;1.70;1.50;;;13.30;37.40;;;;;;10412420;28;20661;-73
2021/05/20 01:11:20;;;;;;;1.60;1.50;;;13.30;37.60;;;;;;10412222;28;20402;-73
2021/05/20 01:16:23;;;;;;;1.63;1.50;;;13.30;37.30;;;;;;10411924;28;20275;-72
2021/05/20 01:21:26;;;;;;;1.50;1.40;;;13.20;37.30;;;;;;10412014;28;20309;-73
2021/05/20 01:26:30;;;;;;;3.10;1.63;;;13.20;37.60;;;;;;10411702;28;20246;-72
2021/05/20 01:31:34;;;;;;;2.50;1.57;;;13.20;37.40;;;;;;10411564;28;20240;-72
2021/05/20 01:36:38;;;;;;;1.87;1.60;;;13.20;37.60;;;;;;10411196;28;20323;-71
2021/05/20 01:41:40;;;;;;;2.83;1.80;;;13.20;37.90;;;;;;10411228;28;20245;-72
2021/05/20 01:46:43;;;;;;;1.67;1.57;;;13.20;37.60;;;;;;10410863;28;20300;-71
2021/05/20 01:51:47;;;;;;;1.80;1.70;;;13.10;37.60;;;;;;10410411;28;20313;-72
2021/05/20 01:56:49;;;;;;;2.70;1.93;;;13.10;37.90;;;;;;10410317;28;20271;-72
2021/05/20 02:01:52;;;;;;;3.67;2.00;;;13.00;37.80;;;;;;10410607;28;20329;-72
2021/05/20 02:06:56;;;;;;;2.00;1.90;;;12.90;37.90;;;;;;10410305;28;20364;-73
2021/05/20 02:11:59;;;;;;;2.73;1.90;;;12.90;38.20;;;;;;10410017;28;20265;-73
2021/05/20 02:17:01;;;;;;;1.70;1.60;;;12.90;38.10;;;;;;10409310;28;20234;-73
2021/05/20 02:22:05;;;;;;;1.70;1.60;;;12.90;38.20;;;;;;10408635;28;20234;-72
2021/05/20 02:27:08;;;;;;;1.70;1.40;;;12.90;38.40;;;;;;10408218;28;20229;-72
2021/05/20 02:32:11;;;;;;;1.70;1.60;;;12.90;38.20;;;;;;10409126;28;20230;-72
2021/05/20 02:37:16;;;;;;;1.80;1.70;;;12.90;38.20;;;;;;10409149;28;20233;-72
2021/05/20 02:42:18;;;;;;;1.70;1.60;;;13.00;38.40;;;;;;10408892;28;20235;-72
2021/05/20 02:47:22;;;;;;;1.80;1.70;;;12.90;38.00;;;;;;10408606;28;20593;-72
2021/05/20 02:52:26;;;;;;;1.80;1.70;;;12.90;38.00;;;;;;10408652;28;20226;-71
2021/05/20 02:57:29;;;;;;;1.70;1.60;;;12.80;38.30;;;;;;10408221;28;20235;-71
2021/05/20 03:02:32;;;;;;;1.47;1.37;;;12.80;38.20;;;;;;10407249;28;20316;-72
2021/05/20 03:07:36;;;;;;;1.60;1.50;;;12.70;38.10;;;;;;10407891;28;20728;-72
2021/05/20 03:12:38;;;;;;;2.43;1.57;;;12.70;38.40;;;;;;10407465;28;20718;-72
2021/05/20 03:17:41;;;;;;;1.57;1.47;;;12.60;38.20;;;;;;10407623;28;20264;-72
2021/05/20 03:22:46;;;;;;;2.13;2.00;;;12.60;38.20;;;;;;10407536;28;20249;-72
2021/05/20 03:27:49;;;;;;;2.23;1.70;;;12.50;38.50;;;;;;10407290;28;20217;-72
2021/05/20 03:32:51;;;;;;;2.73;2.53;;;12.40;38.30;;;;;;10407346;28;20221;-72
2021/05/20 03:37:55;;;;;;;2.20;2.10;;;12.40;38.40;;;;;;10407320;28;20230;-72
2021/05/20 03:42:58;;;;;;;2.47;1.90;;;12.40;38.80;;;;;;10406969;28;20260;-72
2021/05/20 03:48:01;;;;;;;5.40;1.90;;;12.40;38.60;;;;;;10406881;28;20287;-72
2021/05/20 03:53:04;;;;;;;2.07;1.70;;;12.40;38.40;;;;;;10406444;28;20636;-72
2021/05/20 03:58:07;;;;;;;1.63;1.53;;;12.40;38.70;;;;;;10406814;28;20317;-72
2021/05/20 04:03:10;;;;;;;2.00;1.80;;;12.40;38.50;;;;;;10406361;28;20253;-73
2021/05/20 04:08:13;;;;;;;1.87;1.70;;;12.40;38.60;;;;;;10406637;28;20245;-72
2021/05/20 04:13:27;;;;;;;1.73;1.63;;;12.40;38.60;;;;;;10406045;28;20313;-72
2021/05/20 04:18:31;;;;;;;2.40;1.97;;;12.30;39.30;;;;;;10413963;28;20321;-72
2021/05/20 04:23:35;;;;;;;3.87;1.70;;;12.30;38.80;;;;;;10413801;28;20781;-72
2021/05/20 04:28:38;;;;;;;2.60;2.20;;;12.30;39.10;;;;;;10413623;28;20246;-72
2021/05/20 04:33:41;;;;;;;2.80;2.30;;;12.30;38.90;;;;;;10413438;28;20261;-72
2021/05/20 04:38:44;;;;;;;3.90;2.60;;;12.30;39.10;;;;;;10413262;28;20744;-72
2021/05/20 04:43:47;;;;;;;3.83;2.27;;;12.30;39.50;;;;;;10413288;28;20257;-72
2021/05/20 04:48:50;;;;;;;2.60;2.50;;;12.40;39.40;;;;;;10413108;28;20240;-72
2021/05/20 04:53:53;;;;;;;3.07;2.70;;;12.40;39.40;;;;;;10404671;28;20242;-70
2021/05/20 04:58:56;;;;;;;3.00;2.70;;;12.50;39.80;;;;;;10382723;28;20784;-70
2021/05/20 05:03:59;;;;;;;2.90;2.60;;;12.60;40.50;;;;;;10386504;28;20688;-70
2021/05/20 05:09:03;;;;;;;2.87;2.60;;;12.60;39.70;;;;;;10390462;28;20305;-70
2021/05/20 05:14:05;;;;;;;3.07;2.77;;;12.70;39.80;;;;;;10395722;28;20818;-70
2021/05/20 05:19:09;;;;;;;3.67;3.07;;;12.70;39.70;;;;;;10382544;28;20258;-71
2021/05/20 05:24:12;;;;;;;2.90;2.70;;;12.70;39.80;;;;;;10386315;28;20317;-71
2021/05/20 05:29:15;;;;;;;3.00;2.50;;;12.80;40.10;;;;;;10377213;28;20376;-70
2021/05/20 05:34:18;;;;;;;2.90;2.70;;;12.90;40.10;;;;;;10379157;28;20238;-70
2021/05/20 05:39:22;;;;;;;2.83;2.63;;;12.90;40.10;;;;;;10385824;28;20312;-70
2021/05/20 05:44:24;;;;;;;3.10;2.80;;;13.00;40.40;;;;;;10393085;28;20314;-71
2021/05/20 05:49:29;;;;;;;3.20;2.90;;;13.00;39.90;;;;;;10396076;28;20233;-71
2021/05/20 05:54:33;;;;;;;2.90;2.70;;;13.10;40.10;;;;;;10376732;28;20260;-71
2021/05/20 05:59:36;;;;;;;4.93;2.90;;;13.10;40.40;;;;;;10385744;28;20661;-71
2021/05/20 06:04:39;;;;;;;4.10;3.40;;;13.20;40.20;;;;;;10393704;28;20260;-71
2021/05/20 06:09:42;;;;;;;3.17;2.60;;;13.30;40.20;;;;;;10390790;28;20636;-71
2021/05/20 06:14:45;;;;;;;3.30;2.57;;;13.30;40.20;;;;;;10391427;28;20312;-71
2021/05/20 06:19:48;;;;;;;2.70;2.50;;;13.30;40.00;;;;;;10388564;28;20312;-71
2021/05/20 06:24:51;;;;;;;2.80;2.60;;;13.30;40.00;;;;;;10391186;28;20249;-71
2021/05/20 06:29:54;;;;;;;2.70;2.40;;;13.30;40.00;;;;;;10382446;28;20225;-71
2021/05/20 06:34:57;;;;;;;2.67;2.47;;;13.30;40.60;;;;;;10384600;28;20227;-71
2021/05/20 06:40:01;;;;;;;2.50;2.30;;;13.40;39.80;;;;;;10381904;28;20329;-71
2021/05/20 06:45:04;;;;;;;2.00;1.90;;;13.40;39.90;;;;;;10381544;28;20238;-71
2021/05/20 06:50:08;;;;;;;2.37;2.17;;;13.40;40.30;;;;;;10380539;28;20254;-71
2021/05/20 06:55:12;;;;;;;3.03;2.00;;;13.50;40.30;;;;;;10375196;28;20249;-71
2021/05/20 07:00:16;;;;;;;2.20;2.00;;;13.70;40.70;;;;;;10382612;28;20313;-71
2021/05/20 07:05:20;;;;;;;2.00;1.90;;;13.80;40.50;;;;;;10381596;28;20336;-71
2021/05/20 07:10:24;;;;;;;1.60;1.50;;;14.00;40.30;;;;;;10381400;28;20236;-71
2021/05/20 07:15:28;;;;;;;1.50;1.40;;;14.20;40.30;;;;;;10382125;28;20261;-71
2021/05/20 07:20:30;;;;;;;1.50;1.40;;;14.30;39.90;;;;;;10380314;28;20246;-72
2021/05/20 07:25:34;;;;;;;1.20;1.10;;;14.40;39.50;;;;;;10358008;28;20274;-71
2021/05/20 07:30:37;;;;;;;2.60;1.37;;;14.50;39.80;;;;;;10356830;28;20229;-71
2021/05/20 07:35:40;;;;;;;1.10;1.10;;;14.60;39.80;;;;;;10359875;28;20296;-71
2021/05/20 07:40:44;;;;;;;0.90;0.90;;;14.80;39.70;;;;;;10368742;28;20280;-71
2021/05/20 07:45:49;;;;;;;0.93;0.93;;;14.90;39.10;;;;;;10347941;28;20313;-71
2021/05/20 07:50:52;;;;;;;1.20;1.20;;;15.00;38.90;;;;;;10361676;28;20313;-71
2021/05/20 07:55:55;;;;;;;1.10;1.10;;;15.20;38.80;;;;;;10383591;28;20234;-71
2021/05/20 08:01:01;;;;;;;1.50;0.90;;;15.20;38.30;;;;;;10386989;28;20269;-72
2021/05/20 08:06:11;;;;;;;1.43;1.10;;;15.30;38.50;;;;;;10389015;28;20222;-72
2021/05/20 08:11:14;;;;;;;1.30;1.20;;;15.30;38.70;;;;;;10392272;28;20229;-72
2021/05/20 08:16:17;;;;;;;1.30;1.20;;;15.30;38.60;;;;;;10393346;28;20540;-73
2021/05/20 08:21:20;;;;;;;1.40;1.30;;;15.30;37.70;;;;;;10384400;28;20316;-72
2021/05/20 08:26:25;;;;;;;1.30;1.20;;;15.40;37.50;;;;;;10388564;28;20233;-72
2021/05/20 08:31:29;;;;;;;1.53;1.30;;;15.40;37.60;;;;;;10389943;28;20275;-72
2021/05/20 08:36:33;;;;;;;1.20;1.20;;;15.40;37.40;;;;;;10386545;28;20816;-72
2021/05/20 08:41:37;;;;;;;1.40;1.30;;;15.40;37.30;;;;;;10392199;28;20228;-71
2021/05/20 08:46:40;;;;;;;1.20;1.10;;;15.40;37.50;;;;;;10394188;28;20249;-73
2021/05/20 08:51:44;;;;;;;1.40;1.30;;;15.50;37.70;;;;;;10385966;28;20226;-72
2021/05/20 08:56:51;;;;;;;1.00;1.00;;;15.50;37.40;;;;;;10379347;28;20226;-72
2021/05/20 09:01:54;;;;;;;0.80;0.80;;;15.60;38.00;;;;;;10394454;28;20240;-71
2021/05/20 09:07:04;;;;;;;1.10;1.00;;;15.80;37.90;;;;;;10389179;28;20298;-71
2021/05/20 09:12:09;;;;;;;6.10;1.00;;;16.00;37.10;;;;;;10385477;28;20265;-71
2021/05/20 09:17:13;;;;;;;1.40;0.83;;;16.00;36.50;;;;;;10390408;28;20321;-71
2021/05/20 09:22:16;;;;;;;0.70;0.70;;;16.00;35.90;;;;;;10380665;28;20237;-71
2021/05/20 09:27:28;;;;;;;0.70;0.70;;;15.90;35.30;;;;;;10387809;28;20839;-71
2021/05/20 09:32:34;;;;;;;0.60;0.60;;;15.60;35.00;;;;;;10373892;28;20844;-72
2021/05/20 09:37:52;;;;;;;0.60;0.60;;;15.50;35.90;;;;;;10376668;28;20235;-73
2021/05/20 09:42:56;;;;;;;0.50;0.50;;;15.40;34.30;;;;;;10384175;28;20317;-76
2021/05/20 09:48:06;;;;;;;0.40;0.40;;;15.40;35.40;;;;;;10398663;28;20308;-76
2021/05/20 09:53:11;;;;;;;0.60;0.60;;;15.30;34.20;;;;;;10369081;28;20250;-76
2021/05/20 09:58:15;;;;;;;0.57;0.57;;;15.30;35.10;;;;;;10368147;28;20284;-76
2021/05/20 10:03:19;;;;;;;0.60;0.60;;;15.20;34.90;;;;;;10368383;28;20761;-76
2021/05/20 10:08:23;;;;;;;0.70;0.70;;;15.30;35.60;;;;;;10361071;28;20687;-76
2021/05/20 10:13:28;;;;;;;0.70;0.70;;;15.30;35.40;;;;;;10379824;28;20249;-76
2021/05/20 10:18:31;;;;;;;0.80;0.80;;;15.50;36.00;;;;;;10385658;28;20259;-76
2021/05/20 10:23:34;;;;;;;0.80;0.80;;;15.80;35.50;;;;;;10381548;28;20312;-76
2021/05/20 10:28:38;;;;;;;1.40;0.80;;;16.00;35.10;;;;;;10381176;28;20245;-70
2021/05/20 10:33:42;;;;;;;1.60;0.60;;;16.20;34.90;;;;;;10378469;28;20230;-70
2021/05/20 10:38:45;;;;;;;0.53;0.53;;;16.50;36.10;;;;;;10378331;28;20229;-70
2021/05/20 10:43:50;;;;;;;0.50;0.50;;;16.80;34.60;;;;;;10378457;28;20234;-70
2021/05/20 10:48:54;;;;;;;0.63;0.60;;;17.10;34.00;;;;;;10380013;28;20317;-70
2021/05/20 10:54:10;;;;;;;0.73;0.73;;;17.40;34.30;;;;;;10381540;28;20312;-70
2021/05/20 10:59:49;;;;;;;0.50;0.50;;;17.70;31.80;;;;;;10375944;28;20241;-70
2021/05/20 11:04:52;;;;;;;0.67;0.67;;;17.90;32.50;;;;;;10378201;28;20353;-70
2021/05/20 11:10:09;;;;;;;1.50;0.60;;;18.10;32.80;;;;;;10372522;28;20241;-70
2021/05/20 11:15:16;;;;;;;0.50;0.50;;;18.20;31.90;;;;;;10377460;28;20573;-70
2021/05/20 11:20:45;;;;;;;0.57;0.50;;;18.30;32.50;;;;;;10382440;28;20272;-70
2021/05/20 11:25:58;;;;;;;0.90;0.60;;;18.40;31.80;;;;;;10379192;28;20237;-69
2021/05/20 11:31:01;;;;;;;0.87;0.70;;;18.60;33.60;;;;;;10381387;28;20241;-70
2021/05/20 11:36:13;;;;;;;0.70;0.70;;;18.70;33.20;;;;;;10384645;28;20783;-70
2021/05/20 11:41:17;;;;;;;0.50;0.50;;;18.80;32.30;;;;;;10381649;28;20241;-70
2021/05/20 11:46:22;;;;;;;0.50;0.50;;;18.90;32.20;;;;;;10370915;28;20289;-70
2021/05/20 11:51:42;;;;;;;0.50;0.50;;;19.00;31.90;;;;;;10370668;28;20308;-71
2021/05/20 11:56:49;;;;;;;0.63;0.63;;;19.10;29.80;;;;;;10380810;28;20233;-70
2021/05/20 12:01:51;;;;;;;0.60;0.60;;;19.20;30.10;;;;;;10370917;28;20242;-69
2021/05/20 12:06:55;;;;;;;0.60;0.60;;;19.10;30.70;;;;;;10377026;28;20321;-69
2021/05/20 12:12:08;;;;;;;0.40;0.40;;;19.00;30.30;;;;;;10374930;28;20258;-68
2021/05/20 12:17:14;;;;;;;51.17;3.50;;;19.00;29.40;;;;;;10377294;28;20317;-68
2021/05/20 12:22:25;;;;;;;0.73;0.70;;;19.00;29.80;;;;;;10373484;28;20318;-68
2021/05/20 12:27:29;;;;;;;0.73;0.60;;;19.10;29.40;;;;;;10376831;28;20233;-69
2021/05/20 12:32:37;;;;;;;0.50;0.50;;;19.20;30.50;;;;;;10374085;28;20233;-69
2021/05/20 12:37:53;;;;;;;0.60;0.60;;;19.20;30.60;;;;;;10378605;28;20257;-68
2021/05/20 12:43:20;;;;;;;0.53;0.50;;;19.40;30.60;;;;;;10379422;28;20325;-69
2021/05/20 12:48:29;;;;;;;0.40;0.40;;;19.60;30.50;;;;;;10379057;28;20257;-69
2021/05/20 12:53:37;;;;;;;0.67;0.60;;;19.70;30.50;;;;;;10379767;28;20253;-68
2021/05/20 12:58:54;;;;;;;0.60;0.60;;;19.90;30.00;;;;;;10379630;28;20325;-70
2021/05/20 13:03:58;;;;;;;0.60;0.60;;;20.00;30.30;;;;;;10382946;28;20225;-68
2021/05/20 13:09:09;;;;;;;0.50;0.50;;;20.00;30.00;;;;;;10381717;28;20273;-68
2021/05/20 13:14:22;;;;;;;1.07;0.80;;;19.90;29.70;;;;;;10381637;28;20301;-66
2021/05/20 13:25:09;;;;;;;0.70;0.70;;;20.00;30.10;;;;;;10278587;28;20748;-68
2021/05/20 13:30:16;;;;;;;0.60;0.60;;;19.90;29.00;;;;;;10348968;28;20627;-68
2021/05/20 13:35:20;;;;;;;0.80;0.80;;;19.90;29.50;;;;;;10359216;28;20225;-68
2021/05/20 13:40:25;;;;;;;1.10;0.60;;;19.90;29.60;;;;;;10359620;28;20230;-68
2021/05/20 13:45:28;;;;;;;1.20;0.70;;;19.80;29.50;;;;;;10353893;28;20249;-68
2021/05/20 13:50:31;;;;;;;0.60;0.60;;;19.80;30.00;;;;;;10360189;28;20257;-68
2021/05/20 13:55:35;;;;;;;0.50;0.50;;;19.70;29.80;;;;;;10365662;28;20321;-68
2021/05/20 14:00:39;;;;;;;0.60;0.60;;;19.70;29.70;;;;;;10360710;28;20230;-68
2021/05/20 14:05:42;;;;;;;0.70;0.70;;;19.60;29.60;;;;;;10369198;28;20233;-68
2021/05/20 14:10:45;;;;;;;0.83;0.60;;;19.70;29.60;;;;;;10379390;28;20230;-68
2021/05/20 14:15:48;;;;;;;0.60;0.60;;;19.70;29.10;;;;;;10381208;28;20233;-68
2021/05/20 14:20:51;;;;;;;0.60;0.60;;;19.80;29.30;;;;;;10376535;28;20226;-68
2021/05/20 14:25:55;;;;;;;0.50;0.50;;;19.80;29.30;;;;;;10378961;28;20234;-69
2021/05/20 14:30:58;;;;;;;0.53;0.53;;;19.80;29.10;;;;;;10382861;28;20233;-69
2021/05/20 14:36:00;;;;;;;0.60;0.60;;;19.80;29.30;;;;;;10378008;28;20234;-69
2021/05/20 14:41:04;;;;;;;0.60;0.60;;;20.00;28.90;;;;;;10379945;28;20234;-69
2021/05/20 14:46:07;;;;;;;1.10;0.67;;;20.00;28.90;;;;;;10378531;28;20238;-69
2021/05/20 14:51:13;;;;;;;0.63;0.63;;;20.00;29.00;;;;;;10373836;28;20228;-69
2021/05/20 14:56:21;;;;;;;0.67;0.67;;;20.10;29.10;;;;;;10376719;28;20325;-69
2021/05/20 15:06:45;;;;;;;0.53;0.53;;;20.20;29.00;;;;;;10376267;28;20217;-69
2021/05/20 15:11:53;;;;;;;0.50;0.50;;;20.30;28.90;;;;;;10376730;28;20318;-69
2021/05/20 15:17:02;;;;;;;2.07;0.70;;;20.30;28.80;;;;;;10382537;28;20739;-69
2021/05/20 15:22:05;;;;;;;0.70;0.70;;;20.30;28.50;;;;;;10375485;28;20623;-71
2021/05/20 15:27:09;;;;;;;0.70;0.70;;;20.20;28.40;;;;;;10382741;28;20352;-68
2021/05/20 15:32:12;;;;;;;1.10;1.00;;;20.10;28.10;;;;;;10382436;28;20661;-68
2021/05/20 15:37:14;;;;;;;1.50;0.80;;;20.00;28.60;;;;;;10379249;28;20785;-68
2021/05/20 15:42:19;;;;;;;0.80;0.73;;;20.00;28.40;;;;;;10386003;28;20226;-69
2021/05/20 15:47:26;;;;;;;1.23;0.60;;;20.00;28.30;;;;;;10378129;28;20230;-68
2021/05/20 15:52:33;;;;;;;0.70;0.70;;;19.90;28.60;;;;;;10375772;28;20229;-68
2021/05/20 15:57:38;;;;;;;0.60;0.60;;;19.80;28.20;;;;;;10377688;28;20233;-68
2021/05/20 16:02:40;;;;;;;0.50;0.50;;;19.80;28.60;;;;;;10377735;28;20225;-68
2021/05/20 16:07:49;;;;;;;0.80;0.80;;;19.70;28.80;;;;;;10378856;28;20213;-68
2021/05/20 16:13:08;;;;;;;0.70;0.70;;;19.70;28.70;;;;;;10388350;28;20313;-69
2021/05/20 16:18:11;;;;;;;0.70;0.70;;;19.60;28.30;;;;;;10385438;28;20372;-69
2021/05/20 16:23:21;;;;;;;1.07;0.70;;;19.50;28.40;;;;;;10385325;28;20227;-68
2021/05/20 16:35:34;;;;;;;1.40;1.30;;;19.20;28.40;;;;;;10385672;28;20336;-69
2021/05/20 16:39:20;;;;;;;2.03;0.90;;;18.90;29.10;;;;;;10387421;28;20709;-69
2021/05/20 16:44:24;;;;;;;0.63;0.63;;;18.70;29.60;;;;;;10380411;28;20234;-69
2021/05/20 16:49:39;;;;;;;0.70;0.70;;;18.60;30.20;;;;;;10384332;28;20251;-69
2021/05/20 16:54:51;;;;;;;0.50;0.50;;;18.60;30.80;;;;;;10384883;28;20853;-68
2021/05/20 16:59:55;;;;;;;1.30;1.30;;;18.70;30.20;;;;;;10383917;28;20261;-69
2021/05/20 17:04:57;;;;;;;0.80;0.80;;;18.80;30.10;;;;;;10383115;28;20262;-69
2021/05/20 17:10:00;;;;;;;1.50;1.40;;;19.00;30.60;;;;;;10386209;28;20222;-68
2021/05/20 17:15:05;;;;;;;1.20;1.17;;;19.10;30.30;;;;;;10362360;28;20309;-69
2021/05/20 17:20:11;;;;;;;1.00;1.00;;;19.20;30.20;;;;;;10358499;28;20230;-69
2021/05/20 17:25:14;;;;;;;1.37;1.27;;;19.30;30.00;;;;;;10360423;28;20255;-69
2021/05/20 17:30:18;;;;;;;1.53;1.43;;;19.40;30.30;;;;;;10372035;28;20313;-69
2021/05/20 17:35:20;;;;;;;2.27;1.60;;;19.50;30.80;;;;;;10363530;28;20266;-69
2021/05/20 17:40:23;;;;;;;2.60;2.40;;;19.50;29.90;;;;;;10363863;28;20230;-69
2021/05/20 17:45:27;;;;;;;2.97;2.67;;;19.50;29.90;;;;;;10360704;28;20664;-69
2021/05/20 17:50:30;;;;;;;3.77;3.40;;;19.40;29.80;;;;;;10351905;28;20289;-69
2021/05/20 17:55:32;;;;;;;5.70;4.53;;;19.30;29.80;;;;;;10357202;28;20308;-69
2021/05/20 18:00:36;;;;;;;3.87;3.50;;;19.20;30.00;;;;;;10357591;28;20226;-69
2021/05/20 18:05:39;;;;;;;5.30;4.80;;;19.20;30.00;;;;;;10365568;28;20325;-69
2021/05/20 18:10:49;;;;;;;3.83;3.53;;;19.20;30.20;;;;;;10361521;28;20232;-69
2021/05/20 18:16:01;;;;;;;6.57;3.03;;;19.20;30.30;;;;;;10359392;28;20230;-69
2021/05/20 18:26:21;;;;;;;2.93;2.73;;;19.10;30.30;;;;;;10386623;28;20275;-69
2021/05/20 18:31:29;;;;;;;3.57;3.27;;;19.00;30.40;;;;;;10386871;28;20351;-69
2021/05/20 18:36:36;;;;;;;3.87;3.43;;;19.00;30.60;;;;;;10385868;28;20230;-69
2021/05/20 18:41:39;;;;;;;2.40;2.20;;;18.90;30.40;;;;;;10380365;28;20226;-69
2021/05/20 18:46:42;;;;;;;2.30;2.10;;;18.80;29.90;;;;;;10388529;28;20300;-69
2021/05/20 18:51:45;;;;;;;2.40;1.63;;;18.70;30.10;;;;;;10378902;28;20230;-69
2021/05/20 18:56:49;;;;;;;2.60;1.30;;;18.60;30.00;;;;;;10379127;28;20240;-68
2021/05/20 19:01:52;;;;;;;1.20;1.10;;;18.50;30.10;;;;;;10376503;28;20316;-69
2021/05/20 19:06:58;;;;;;;1.33;1.23;;;18.40;30.50;;;;;;10387272;28;20269;-68
2021/05/20 19:12:02;;;;;;;2.27;1.40;;;18.30;30.60;;;;;;10375208;28;20782;-68
2021/05/20 19:17:07;;;;;;;1.10;1.10;;;18.20;30.40;;;;;;10395494;28;20230;-69
2021/05/20 19:22:13;;;;;;;2.17;1.30;;;18.10;30.40;;;;;;10379528;28;20257;-68
2021/05/20 19:27:16;;;;;;;1.80;1.70;;;17.90;30.30;;;;;;10389717;28;20272;-68
2021/05/20 19:32:22;;;;;;;1.83;1.73;;;17.80;30.60;;;;;;10396340;28;20774;-68
2021/05/20 19:37:27;;;;;;;2.00;1.90;;;17.70;30.80;;;;;;10389273;28;20275;-69
2021/05/20 19:42:30;;;;;;;3.70;3.40;;;17.60;30.90;;;;;;10391519;28;20317;-68
2021/05/20 19:47:34;;;;;;;2.70;2.50;;;17.50;31.10;;;;;;10396626;28;20253;-68
2021/05/20 19:52:43;;;;;;;2.37;2.17;;;17.40;31.10;;;;;;10393488;28;20261;-69
2021/05/20 20:03:13;;;;;;;2.00;1.90;;;17.30;30.90;;;;;;10392897;28;20629;-68
2021/05/20 20:08:41;;;;;;;1.70;1.60;;;17.10;31.10;;;;;;10389996;28;20298;-67
2021/05/20 20:13:40;;;;;;;2.00;1.90;;;17.00;31.20;;;;;;10395535;28;20256;-68
2021/05/20 20:18:46;;;;;;;1.50;1.40;;;16.90;31.60;;;;;;10384062;28;20226;-67
2021/05/20 20:23:56;;;;;;;1.77;1.30;;;16.90;32.00;;;;;;10403047;28;20316;-68
2021/05/20 20:28:59;;;;;;;1.40;1.30;;;16.90;31.90;;;;;;10386944;28;20292;-68
2021/05/20 20:34:17;;;;;;;2.30;2.10;;;16.80;31.70;;;;;;10379812;28;20308;-68
2021/05/20 20:44:39;;;;;;;2.77;2.43;;;16.80;31.70;;;;;;10363616;28;20234;-68
2021/05/20 20:49:43;;;;;;;1.87;1.77;;;16.80;31.70;;;;;;10392452;28;20440;-68
2021/05/20 20:54:46;;;;;;;2.63;1.60;;;16.70;32.10;;;;;;10400590;28;20316;-68
2021/05/20 20:59:49;;;;;;;1.67;1.57;;;16.60;32.00;;;;;;10397130;28;20225;-68
2021/05/20 21:04:53;;;;;;;1.67;1.57;;;16.50;32.00;;;;;;10390979;28;20725;-68
2021/05/20 21:09:56;;;;;;;1.70;1.60;;;16.40;32.30;;;;;;10404037;28;20234;-67
2021/05/20 21:14:58;;;;;;;2.07;1.70;;;16.30;32.40;;;;;;10389525;28;20320;-67
2021/05/20 21:20:02;;;;;;;1.67;1.47;;;16.30;32.60;;;;;;10391467;28;20268;-68
2021/05/20 21:25:06;;;;;;;2.07;1.73;;;16.20;32.50;;;;;;10384842;28;20229;-68
2021/05/20 21:30:11;;;;;;;3.63;1.50;;;16.20;33.20;;;;;;10394984;28;20702;-68
2021/05/20 21:35:15;;;;;;;2.40;1.50;;;16.20;33.10;;;;;;10386863;28;20256;-68
2021/05/20 21:40:20;;;;;;;1.57;1.47;;;16.10;33.10;;;;;;10381516;28;20237;-70
2021/05/20 21:45:23;;;;;;;1.77;1.57;;;16.00;32.90;;;;;;10381454;28;20245;-70
2021/05/20 21:50:28;;;;;;;1.40;1.30;;;15.80;32.80;;;;;;10380219;28;20226;-70
2021/05/20 21:55:31;;;;;;;1.70;1.57;;;15.70;32.70;;;;;;10381520;28;20233;-70
2021/05/20 22:00:34;;;;;;;2.50;1.60;;;15.70;32.70;;;;;;10383073;28;20240;-70
2021/05/20 22:05:38;;;;;;;1.60;1.50;;;15.60;32.60;;;;;;10374587;28;20241;-70
2021/05/20 22:10:49;;;;;;;1.40;1.30;;;15.50;32.50;;;;;;10376460;28;20325;-70
2021/05/20 22:15:53;;;;;;;1.87;1.63;;;15.40;32.50;;;;;;10377928;28;20307;-70
2021/05/20 22:20:57;;;;;;;1.50;1.40;;;15.40;33.00;;;;;;10373819;28;20258;-70
2021/05/20 22:26:04;;;;;;;1.30;1.20;;;15.30;33.20;;;;;;10374174;28;20791;-70
2021/05/20 22:31:16;;;;;;;1.73;1.60;;;15.20;33.10;;;;;;10376516;28;20230;-70
2021/05/20 22:36:20;;;;;;;1.57;1.47;;;15.20;33.30;;;;;;10373669;28;20253;-70
2021/05/20 22:41:24;;;;;;;1.77;1.47;;;15.20;33.50;;;;;;10374874;28;20701;-70
2021/05/20 22:46:27;;;;;;;3.57;1.53;;;15.10;33.20;;;;;;10379288;28;20242;-70
2021/05/20 22:51:30;;;;;;;1.63;1.47;;;15.00;33.10;;;;;;10376846;28;20340;-70
2021/05/20 22:56:33;;;;;;;1.57;1.47;;;14.80;33.60;;;;;;10377478;28;20874;-70
2021/05/20 23:01:36;;;;;;;1.60;1.50;;;14.70;33.70;;;;;;10374625;28;20254;-70
2021/05/20 23:06:40;;;;;;;1.53;1.43;;;14.70;33.60;;;;;;10378774;28;20313;-70
2021/05/20 23:11:42;;;;;;;1.57;1.47;;;14.60;33.70;;;;;;10377892;28;20815;-70
2021/05/20 23:16:45;;;;;;;1.50;1.40;;;14.60;33.70;;;;;;10373445;28;20316;-70
2021/05/20 23:21:49;;;;;;;1.73;1.50;;;14.50;34.00;;;;;;10376527;28;20665;-70
2021/05/20 23:26:52;;;;;;;1.40;1.30;;;14.50;34.40;;;;;;10377999;28;20245;-70
2021/05/20 23:31:55;;;;;;;1.40;1.40;;;14.50;34.20;;;;;;10378001;28;20612;-70
2021/05/20 23:36:58;;;;;;;1.93;1.60;;;14.50;34.20;;;;;;10363993;28;20315;-70
2021/05/20 23:42:02;;;;;;;1.43;1.33;;;14.50;34.40;;;;;;10375353;28;20237;-70
2021/05/20 23:47:05;;;;;;;1.30;1.20;;;14.50;34.10;;;;;;10374764;28;20240;-70
2021/05/20 23:52:08;;;;;;;1.57;1.43;;;14.40;34.30;;;;;;10373192;28;20293;-70
2021/05/20 23:57:11;;;;;;;1.47;1.37;;;14.30;34.60;;;;;;10372299;28;20237;-70
